Time;durP1;ratioP1;P1;durP2;ratioP2;P2;SDS_P1;SDS_P2;PMS_P1;PMS_P2;Temp;Humidity;BMP_temperature;BMP_pressure;BME280_temperature;BME280_humidity;BME280_pressure;Samples;Min_cycle;Max_cycle;Signal;HPM_P1;HPM_P2
2022/12/23 00:00:36;;;;;;;18.52;10.75;;;;;;;12.00;61.96;100109.69;4950214;28;97089;-71
2022/12/23 00:03:02;;;;;;;19.90;11.50;;;;;;;11.89;62.86;100115.53;4944570;28;99183;-70
2022/12/23 00:05:31;;;;;;;20.35;10.40;;;;;;;11.79;62.92;100101.06;4940581;28;99406;-70
2022/12/23 00:07:57;;;;;;;18.83;11.48;;;;;;;11.85;63.18;100098.97;4950424;28;97572;-71
2022/12/23 00:10:23;;;;;;;17.58;10.80;;;;;;;12.02;62.46;100097.22;4948859;28;97035;-71
2022/12/23 00:15:34;;;;;;;20.48;11.38;;;;;;;12.04;62.61;100090.91;4942991;28;97312;-71
2022/12/23 00:18:00;;;;;;;19.02;11.18;;;;;;;11.99;62.49;100092.97;4942440;28;96884;-71
2022/12/23 00:20:27;;;;;;;18.75;10.68;;;;;;;11.90;63.14;100090.78;4947447;28;96811;-70
2022/12/23 00:23:06;;;;;;;16.13;10.05;;;;;;;11.95;63.10;100086.94;4943706;28;101300;-70
2022/12/23 00:25:40;;;;;;;17.65;10.80;;;;;;;11.93;63.11;100090.63;4946242;28;98242;-71
2022/12/23 00:28:10;;;;;;;21.80;10.32;;;;;;;11.99;62.83;100082.38;4952071;28;96841;-71
2022/12/23 00:30:37;;;;;;;19.90;11.82;;;;;;;12.23;62.31;100078.44;4941606;28;96928;-71
2022/12/23 00:33:04;;;;;;;18.88;11.02;;;;;;;11.96;62.48;100075.44;4945437;28;98759;-71
2022/12/23 00:35:31;;;;;;;20.30;11.50;;;;;;;12.13;62.29;100065.75;4951613;28;98241;-70
2022/12/23 00:37:58;;;;;;;21.25;10.93;;;;;;;12.05;62.70;100066.16;4943068;28;96768;-70
2022/12/23 00:43:05;;;;;;;15.85;10.52;;;;;;;12.18;62.30;100056.63;4908023;28;97949;-70
2022/12/23 00:45:32;;;;;;;20.08;11.30;;;;;;;12.25;62.29;100055.38;4950840;28;97559;-70
2022/12/23 00:50:42;;;;;;;24.58;11.43;;;;;;;11.89;63.26;100054.63;4946452;28;98093;-71
2022/12/23 00:53:10;;;;;;;21.15;11.38;;;;;;;12.36;62.28;100062.72;4946646;28;101160;-71
2022/12/23 00:55:36;;;;;;;22.83;11.90;;;;;;;12.07;63.06;100056.34;4949351;28;97517;-71
2022/12/23 00:58:02;;;;;;;22.10;12.48;;;;;;;12.09;62.73;100049.16;4949738;28;96827;-70
2022/12/23 01:06:10;;;;;;;21.50;12.05;;;;;;;12.63;61.56;100050.66;4910201;28;97500;-71
2022/12/23 01:08:38;;;;;;;23.17;11.52;;;;;;;12.49;61.33;100047.88;4911001;28;96863;-71
2022/12/23 01:11:07;;;;;;;20.83;12.23;;;;;;;12.41;61.80;100047.44;4928337;28;98810;-71
2022/12/23 01:13:34;;;;;;;18.90;11.30;;;;;;;12.30;61.55;100047.16;4938562;28;98894;-71
2022/12/23 01:16:01;;;;;;;20.15;11.50;;;;;;;11.87;63.09;100040.66;4946693;28;97677;-71
2022/12/23 01:18:28;;;;;;;19.15;11.95;;;;;;;11.99;62.98;100045.28;4938820;28;96834;-71
2022/12/23 01:20:54;;;;;;;22.33;12.30;;;;;;;11.57;64.53;100048.31;4942420;28;96955;-71
2022/12/23 01:23:20;;;;;;;29.80;13.93;;;;;;;11.80;63.30;100048.03;4944061;28;99012;-71
2022/12/23 01:25:56;;;;;;;25.42;12.57;;;;;;;11.71;63.96;100039.69;4944907;28;98730;-70
2022/12/23 01:28:22;;;;;;;22.00;12.52;;;;;;;12.07;62.72;100045.75;4945227;28;96898;-71
2022/12/23 01:30:49;;;;;;;24.10;12.85;;;;;;;11.97;63.08;100040.06;4947045;28;97027;-71
2022/12/23 01:33:15;;;;;;;24.73;13.57;;;;;;;12.04;62.77;100043.25;4954656;28;98896;-71
2022/12/23 01:35:41;;;;;;;21.90;12.82;;;;;;;12.12;62.14;100038.41;4951357;28;99066;-70
2022/12/23 01:38:08;;;;;;;24.25;13.30;;;;;;;11.97;62.65;100034.78;4946643;28;97816;-70
2022/12/23 01:40:35;;;;;;;24.85;13.10;;;;;;;12.02;62.73;100033.66;4947486;28;96842;-70
2022/12/23 01:43:02;;;;;;;23.63;13.18;;;;;;;11.87;63.27;100032.69;4956935;28;102275;-70
2022/12/23 01:45:30;;;;;;;23.85;14.25;;;;;;;11.77;63.50;100034.09;4946411;28;99093;-70
2022/12/23 01:47:59;;;;;;;24.77;12.73;;;;;;;12.16;62.50;100028.50;4948952;28;101051;-70
2022/12/23 01:50:30;;;;;;;25.30;13.13;;;;;;;12.08;62.46;100017.50;4954027;28;96832;-71
2022/12/23 01:53:00;;;;;;;26.80;13.38;;;;;;;11.98;62.57;100023.25;4956292;28;98095;-70
2022/12/23 01:55:31;;;;;;;23.85;13.35;;;;;;;11.99;63.06;100013.53;4946513;28;99140;-70
2022/12/23 01:58:03;;;;;;;24.77;13.18;;;;;;;12.06;62.91;100022.84;4944898;28;96711;-70
2022/12/23 02:09:18;;;;;;;21.85;12.40;;;;;;;11.84;63.27;100006.38;4865872;28;98831;-70
2022/12/23 02:12:04;;;;;;;22.98;12.75;;;;;;;12.04;62.81;100016.78;4924552;28;97178;-69
2022/12/23 02:17:40;;;;;;;26.30;12.98;;;;;;;11.87;63.37;99998.28;4951059;28;97740;-70
2022/12/23 02:20:40;;;;;;;24.85;14.07;;;;;;;11.88;63.79;100002.66;4945680;28;96721;-71
2022/12/23 02:23:32;;;;;;;24.63;14.23;;;;;;;11.98;63.45;99996.78;4901540;28;96807;-70
2022/12/23 02:26:18;;;;;;;24.77;13.98;;;;;;;12.14;63.13;99999.44;4950559;28;98854;-70
2022/12/23 02:29:09;;;;;;;25.95;13.57;;;;;;;12.03;63.51;99999.16;4945700;28;98601;-71
2022/12/23 02:31:44;;;;;;;22.88;13.15;;;;;;;12.12;63.49;99993.41;4949485;28;97818;-70
2022/12/23 02:34:16;;;;;;;26.00;14.82;;;;;;;12.05;63.72;99991.16;4953175;28;96835;-70
2022/12/23 02:36:51;;;;;;;24.45;14.25;;;;;;;11.95;63.92;99988.13;4951726;28;99051;-70
2022/12/23 02:39:26;;;;;;;27.95;14.88;;;;;;;11.97;63.83;99983.63;4942741;28;98983;-69
2022/12/23 02:41:59;;;;;;;25.05;13.40;;;;;;;12.08;63.62;99983.06;4942528;28;97438;-70
2022/12/23 02:44:33;;;;;;;26.65;15.38;;;;;;;12.01;63.68;99974.59;4949251;28;96839;-69
2022/12/23 02:47:08;;;;;;;28.23;14.88;;;;;;;12.10;63.81;99967.94;4951322;28;98334;-71
2022/12/23 02:49:39;;;;;;;27.70;14.80;;;;;;;11.93;64.44;99968.84;4949155;28;98836;-70
2022/12/23 02:52:12;;;;;;;27.27;15.20;;;;;;;12.24;63.81;99963.59;4946721;28;96786;-70
2022/12/23 02:54:45;;;;;;;29.02;15.43;;;;;;;12.14;63.97;99959.72;4949923;28;97452;-70
2022/12/23 02:57:14;;;;;;;25.83;14.88;;;;;;;12.19;63.78;99954.19;4940960;28;99797;-70
2022/12/23 02:59:45;;;;;;;29.95;15.88;;;;;;;12.15;64.04;99953.50;4949284;28;96809;-70
2022/12/23 03:02:13;;;;;;;31.33;15.65;;;;;;;12.01;64.34;99949.91;4942205;28;97443;-70
2022/12/23 03:04:40;;;;;;;27.85;15.75;;;;;;;11.96;64.68;99947.47;4947969;28;96837;-70
2022/12/23 03:07:14;;;;;;;29.30;15.02;;;;;;;12.07;64.39;99938.97;4949515;28;99130;-71
2022/12/23 03:09:50;;;;;;;30.20;14.95;;;;;;;12.13;63.91;99943.94;4947772;28;98061;-70
2022/12/23 03:12:28;;;;;;;28.05;14.98;;;;;;;12.01;64.22;99940.16;4943331;28;96801;-70
2022/12/23 03:15:14;;;;;;;25.92;14.68;;;;;;;11.89;64.66;99935.50;4943127;28;96948;-69
2022/12/23 03:17:58;;;;;;;27.97;14.90;;;;;;;11.88;64.85;99936.47;4945116;28;99510;-70
2022/12/23 03:23:21;;;;;;;26.70;14.50;;;;;;;12.12;64.06;99937.78;5049183;27;96995;-71
2022/12/23 03:25:57;;;;;;;29.63;15.75;;;;;;;12.10;64.29;99942.31;5014153;27;96778;-71
2022/12/23 03:28:30;;;;;;;28.38;15.15;;;;;;;12.16;64.15;99944.63;5028420;27;97878;-69
2022/12/23 03:30:59;;;;;;;25.90;14.80;;;;;;;12.10;64.16;99947.59;5019878;28;99224;-70
2022/12/23 03:33:29;;;;;;;26.20;14.80;;;;;;;11.90;64.79;99937.22;5024680;27;97058;-71
2022/12/23 03:36:02;;;;;;;26.88;15.00;;;;;;;12.20;64.30;99943.53;5026926;28;96831;-70
2022/12/23 03:38:33;;;;;;;26.33;15.45;;;;;;;12.11;63.94;99936.06;5026666;27;99323;-72
2022/12/23 03:41:05;;;;;;;27.70;15.07;;;;;;;12.16;64.03;99931.38;5023067;28;101732;-71
2022/12/23 03:43:37;;;;;;;27.25;14.98;;;;;;;12.13;64.16;99928.91;5024297;27;96895;-70
2022/12/23 03:46:10;;;;;;;28.90;14.73;;;;;;;12.21;64.06;99926.66;5021239;28;96856;-70
2022/12/23 03:48:40;;;;;;;25.27;13.63;;;;;;;12.33;63.58;99920.72;5020831;27;98221;-70
2022/12/23 03:51:13;;;;;;;25.80;14.00;;;;;;;12.20;63.91;99919.69;5021971;28;102393;-70
2022/12/23 03:53:45;;;;;;;24.05;14.27;;;;;;;12.27;63.81;99915.72;5019900;28;99673;-71
2022/12/23 03:56:18;;;;;;;28.40;14.35;;;;;;;12.23;63.96;99924.81;5026228;28;99449;-71
2022/12/23 03:58:52;;;;;;;24.92;13.80;;;;;;;12.20;64.08;99924.13;5019928;27;97757;-71
2022/12/23 04:01:27;;;;;;;27.33;14.40;;;;;;;11.93;65.05;99918.53;5024720;28;99503;-72
2022/12/23 04:04:01;;;;;;;29.67;15.20;;;;;;;12.12;64.58;99919.25;5025535;27;96729;-71
2022/12/23 04:06:31;;;;;;;25.75;14.38;;;;;;;11.94;64.73;99912.31;5029124;27;96931;-70
2022/12/23 04:09:00;;;;;;;28.83;14.50;;;;;;;12.06;64.87;99918.72;5016950;27;99184;-71
2022/12/23 04:11:28;;;;;;;28.58;15.45;;;;;;;12.29;64.21;99916.50;5021418;27;99178;-70
2022/12/23 04:13:55;;;;;;;25.15;14.93;;;;;;;12.05;64.87;99915.22;5022568;27;96753;-70
2022/12/23 04:16:22;;;;;;;25.25;14.60;;;;;;;12.11;64.86;99906.94;5016560;27;97316;-71
2022/12/23 04:18:48;;;;;;;26.65;14.35;;;;;;;12.33;64.30;99903.97;5019799;27;99195;-71
2022/12/23 04:21:14;;;;;;;28.00;15.43;;;;;;;12.13;64.78;99901.56;5025621;27;99201;-71
2022/12/23 04:23:41;;;;;;;25.67;14.80;;;;;;;12.00;65.47;99904.03;5018701;28;96825;-70
2022/12/23 04:26:08;;;;;;;26.38;14.75;;;;;;;12.16;64.92;99902.25;5025090;27;97217;-70
2022/12/23 04:28:36;;;;;;;27.92;15.60;;;;;;;12.44;64.02;99901.56;5017160;27;101066;-70
2022/12/23 04:31:03;;;;;;;30.10;15.98;;;;;;;12.07;65.31;99902.75;5019253;27;99037;-71
2022/12/23 04:33:29;;;;;;;29.95;15.38;;;;;;;12.11;65.24;99899.00;5011852;28;96884;-71
2022/12/23 04:35:56;;;;;;;28.58;15.23;;;;;;;12.52;63.75;99901.13;5008497;28;97279;-72
2022/12/23 04:38:22;;;;;;;27.73;15.65;;;;;;;12.06;65.13;99898.41;5017117;28;99002;-71
2022/12/23 04:40:49;;;;;;;28.38;14.90;;;;;;;12.34;64.88;99903.00;5006775;28;99099;-70
2022/12/23 04:43:17;;;;;;;29.60;15.23;;;;;;;12.28;64.69;99898.91;5014185;28;98500;-71
2022/12/23 04:45:43;;;;;;;30.10;16.20;;;;;;;12.36;64.83;99887.88;5008834;28;97074;-71
2022/12/23 04:48:10;;;;;;;28.98;15.75;;;;;;;12.19;64.88;99893.28;5016879;28;99609;-70
2022/12/23 04:50:36;;;;;;;28.95;15.68;;;;;;;12.54;64.24;99891.28;5013862;28;99229;-72
2022/12/23 04:53:03;;;;;;;30.48;15.95;;;;;;;12.16;65.24;99882.84;5014967;28;97143;-71
2022/12/23 04:55:29;;;;;;;30.40;15.95;;;;;;;12.29;64.71;99895.31;5001428;28;97036;-70
2022/12/23 04:57:55;;;;;;;30.63;17.25;;;;;;;12.23;65.28;99881.56;5007631;28;99115;-70
2022/12/23 05:00:24;;;;;;;31.60;16.52;;;;;;;12.47;64.66;99889.94;5007439;28;101519;-70
2022/12/23 05:02:50;;;;;;;29.60;16.55;;;;;;;12.65;64.00;99886.25;5000549;28;97665;-71
2022/12/23 05:05:17;;;;;;;29.85;16.40;;;;;;;12.41;64.58;99892.91;5004203;28;97487;-70
2022/12/23 05:07:43;;;;;;;28.17;15.90;;;;;;;12.26;64.73;99898.16;5010507;28;97705;-70
2022/12/23 05:10:10;;;;;;;29.40;16.75;;;;;;;12.41;64.59;99885.81;5006251;28;101031;-70
2022/12/23 05:12:37;;;;;;;27.85;16.13;;;;;;;12.61;63.69;99892.63;5008671;28;98612;-70
2022/12/23 05:15:04;;;;;;;29.77;15.65;;;;;;;12.55;64.55;99888.53;5015112;28;97778;-70
2022/12/23 05:17:31;;;;;;;28.33;14.80;;;;;;;12.38;64.53;99904.56;5004304;28;99214;-70
2022/12/23 05:19:58;;;;;;;29.88;16.02;;;;;;;12.27;64.81;99902.50;5014311;28;100185;-70
2022/12/23 05:22:24;;;;;;;27.45;14.90;;;;;;;12.49;64.46;99894.19;5005838;28;97248;-70
2022/12/23 05:24:51;;;;;;;26.13;14.52;;;;;;;12.62;64.16;99897.00;5005848;28;98341;-71
2022/12/23 05:27:17;;;;;;;29.90;16.05;;;;;;;12.38;64.70;99897.47;5010100;28;99332;-70
2022/12/23 05:29:44;;;;;;;27.80;15.07;;;;;;;12.29;65.06;99891.81;5006006;28;98808;-71
2022/12/23 05:32:10;;;;;;;27.27;14.70;;;;;;;12.65;63.88;99884.44;5009955;28;96809;-71
2022/12/23 05:34:38;;;;;;;26.05;14.63;;;;;;;12.50;64.35;99890.63;5013169;28;96851;-71
2022/12/23 05:37:04;;;;;;;29.17;15.82;;;;;;;12.76;63.94;99889.13;5011713;28;98064;-70
2022/12/23 05:39:31;;;;;;;25.83;14.75;;;;;;;12.54;64.16;99886.84;5005976;28;99421;-70
2022/12/23 05:41:57;;;;;;;26.10;14.23;;;;;;;12.50;64.40;99887.97;5004974;28;96970;-71
2022/12/23 05:44:23;;;;;;;26.15;13.73;;;;;;;12.64;63.58;99892.47;5008412;28;96969;-72
2022/12/23 05:46:50;;;;;;;26.98;14.38;;;;;;;12.74;63.71;99897.16;5006534;28;99925;-71
2022/12/23 05:49:16;;;;;;;24.15;13.43;;;;;;;12.57;64.15;99894.63;5007442;28;98973;-71
2022/12/23 05:51:44;;;;;;;24.15;14.40;;;;;;;12.52;64.75;99887.88;5004817;28;97986;-71
2022/12/23 05:54:10;;;;;;;26.02;14.18;;;;;;;12.44;64.63;99898.06;5012277;28;96921;-71
2022/12/23 05:56:36;;;;;;;23.38;14.45;;;;;;;12.70;63.75;99887.69;5001767;28;99073;-71
2022/12/23 05:59:03;;;;;;;24.80;13.77;;;;;;;12.82;63.52;99888.75;5012759;28;99059;-71
2022/12/23 06:01:29;;;;;;;25.58;14.05;;;;;;;12.89;63.17;99894.56;5004975;28;97387;-70
2022/12/23 06:03:56;;;;;;;25.02;13.80;;;;;;;12.64;63.76;99892.47;5015098;28;97074;-70
2022/12/23 06:06:22;;;;;;;25.35;14.15;;;;;;;13.04;63.19;99899.84;5009300;28;101044;-71
2022/12/23 06:08:50;;;;;;;23.65;13.55;;;;;;;12.79;63.61;99904.84;5008215;28;99324;-71
2022/12/23 06:11:16;;;;;;;24.70;13.38;;;;;;;12.78;63.64;99909.31;5003545;28;97350;-71
2022/12/23 06:13:43;;;;;;;25.55;14.05;;;;;;;12.45;64.41;99902.41;5012017;28;97333;-70
2022/12/23 06:16:09;;;;;;;24.98;13.40;;;;;;;12.54;64.37;99907.19;5011747;28;100735;-70
2022/12/23 06:18:35;;;;;;;24.70;13.43;;;;;;;12.23;65.32;99908.91;5010068;27;98881;-70
2022/12/23 06:21:02;;;;;;;21.77;12.57;;;;;;;12.40;64.88;99923.03;4999277;28;96817;-71
2022/12/23 06:23:28;;;;;;;23.13;12.93;;;;;;;12.49;64.65;99915.41;5011473;28;97354;-71
2022/12/23 06:25:59;;;;;;;21.70;13.18;;;;;;;12.33;65.27;99931.31;5004877;28;101203;-71
2022/12/23 06:28:28;;;;;;;22.92;13.02;;;;;;;12.21;65.42;99937.25;5005794;28;98830;-69
2022/12/23 06:30:55;;;;;;;25.33;13.60;;;;;;;12.24;65.26;99929.16;5004248;28;96881;-69
2022/12/23 06:33:22;;;;;;;24.88;13.30;;;;;;;12.24;65.38;99929.16;5009118;28;97319;-69
2022/12/23 06:35:49;;;;;;;26.70;13.88;;;;;;;12.42;65.31;99937.03;5003913;28;97611;-71
2022/12/23 06:38:16;;;;;;;21.65;13.43;;;;;;;12.38;65.44;99939.84;5006131;28;98941;-70
2022/12/23 06:40:42;;;;;;;26.80;13.88;;;;;;;12.23;66.01;99945.13;5006859;28;96732;-71
2022/12/23 06:43:12;;;;;;;24.58;13.65;;;;;;;12.28;65.84;99941.28;5009254;28;96837;-71
2022/12/23 06:45:38;;;;;;;25.48;13.68;;;;;;;12.33;66.20;99955.16;5003557;28;99138;-70
2022/12/23 06:48:05;;;;;;;27.23;13.93;;;;;;;12.46;65.81;99959.78;5010582;28;99307;-69
2022/12/23 06:50:33;;;;;;;20.65;12.82;;;;;;;12.38;65.97;99966.34;5002696;28;96809;-71
2022/12/23 06:53:00;;;;;;;27.77;13.60;;;;;;;12.35;66.23;99965.66;5002505;28;96918;-70
2022/12/23 06:55:26;;;;;;;22.65;13.02;;;;;;;12.51;65.88;99963.88;5009758;28;98886;-71
2022/12/23 06:57:53;;;;;;;25.95;14.05;;;;;;;12.37;66.34;99969.06;5013502;28;99176;-70
2022/12/23 07:00:21;;;;;;;25.73;13.68;;;;;;;12.47;66.29;99969.44;5008198;28;96742;-71
2022/12/23 07:02:47;;;;;;;23.48;13.63;;;;;;;12.18;67.13;99971.03;5011264;28;96769;-71
2022/12/23 07:05:14;;;;;;;22.55;12.70;;;;;;;12.40;66.54;99978.66;5001166;28;98955;-72
2022/12/23 07:07:40;;;;;;;25.80;12.88;;;;;;;12.22;67.18;99984.00;5008673;28;98794;-71
2022/12/23 07:10:08;;;;;;;25.42;13.30;;;;;;;12.45;66.50;99987.22;4999218;28;96798;-70
2022/12/23 07:12:34;;;;;;;26.40;13.48;;;;;;;12.15;67.97;99987.06;5003748;28;101174;-71
2022/12/23 07:15:01;;;;;;;24.25;12.70;;;;;;;12.27;67.79;99981.13;4994024;28;98893;-71
2022/12/23 07:17:29;;;;;;;25.63;13.32;;;;;;;12.18;67.82;99990.41;5009572;28;100059;-70
2022/12/23 07:19:57;;;;;;;25.25;12.38;;;;;;;11.94;69.14;99992.59;5008821;28;96803;-70
2022/12/23 07:22:24;;;;;;;24.50;12.63;;;;;;;12.22;68.27;99991.09;5002208;28;96992;-72
2022/12/23 07:24:50;;;;;;;23.77;11.65;;;;;;;12.17;68.15;99993.13;5005421;28;100677;-71
2022/12/23 07:27:17;;;;;;;24.60;12.05;;;;;;;12.20;68.19;99996.50;5001650;28;100859;-71
2022/12/23 07:29:43;;;;;;;21.42;10.70;;;;;;;12.06;69.06;99990.22;5009635;28;97071;-71
2022/12/23 07:32:10;;;;;;;23.75;12.30;;;;;;;12.01;69.12;100001.06;5010182;28;96852;-71
2022/12/23 07:34:41;;;;;;;24.55;12.30;;;;;;;12.10;68.71;99989.09;5008727;28;99078;-71
2022/12/23 07:37:08;;;;;;;23.35;11.70;;;;;;;12.19;68.35;99994.78;5007994;28;99107;-70
2022/12/23 07:39:37;;;;;;;24.08;11.95;;;;;;;11.85;69.21;99994.84;5009032;28;96997;-71
2022/12/23 07:42:04;;;;;;;24.95;11.90;;;;;;;11.69;69.96;100001.84;5004087;28;96904;-70
2022/12/23 07:44:33;;;;;;;24.73;11.75;;;;;;;11.76;69.80;100000.63;5002653;28;98926;-70
2022/12/23 07:47:00;;;;;;;24.10;11.30;;;;;;;11.87;69.54;99995.63;5001211;28;100538;-70
2022/12/23 07:49:26;;;;;;;24.65;11.77;;;;;;;11.84;69.53;100003.72;5003316;28;96902;-70
2022/12/23 07:51:54;;;;;;;24.92;11.98;;;;;;;11.96;69.22;100011.88;5005119;28;97215;-70
2022/12/23 07:54:21;;;;;;;26.35;11.93;;;;;;;12.06;68.74;100006.97;5007563;28;99825;-70
2022/12/23 07:56:48;;;;;;;27.83;12.10;;;;;;;12.01;68.97;100005.50;5001268;28;99752;-71
2022/12/23 07:59:15;;;;;;;28.00;12.68;;;;;;;12.11;68.50;100010.22;5004422;28;96760;-70
2022/12/23 08:01:41;;;;;;;29.70;13.18;;;;;;;12.06;68.53;100012.25;5003953;28;99113;-71
2022/12/23 08:04:07;;;;;;;25.08;12.10;;;;;;;12.11;68.49;100014.66;4997515;28;101198;-70
2022/12/23 08:06:35;;;;;;;30.73;13.05;;;;;;;12.19;68.10;100023.06;5004043;28;98748;-71
2022/12/23 08:09:05;;;;;;;32.70;13.25;;;;;;;12.20;68.25;100024.78;5011545;28;97652;-69
2022/12/23 08:11:31;;;;;;;28.63;12.88;;;;;;;12.15;68.09;100027.66;5007638;28;96926;-70
2022/12/23 08:13:58;;;;;;;30.90;13.95;;;;;;;12.10;68.47;100035.00;5012768;28;98333;-71
2022/12/23 08:16:32;;;;;;;29.50;13.05;;;;;;;12.18;67.90;100040.75;5008581;28;98752;-71
2022/12/23 08:19:00;;;;;;;29.73;13.27;;;;;;;12.17;68.00;100046.97;5015787;28;97033;-71
2022/12/23 08:21:26;;;;;;;34.40;13.77;;;;;;;12.32;67.66;100034.72;5014595;28;96930;-69
2022/12/23 08:23:55;;;;;;;33.65;14.00;;;;;;;12.17;67.47;100039.03;5006012;28;99017;-70
2022/12/23 08:26:24;;;;;;;37.22;14.77;;;;;;;12.40;67.62;100043.09;5019191;28;100656;-64
2022/12/23 08:28:54;;;;;;;38.08;15.40;;;;;;;12.40;67.23;100044.91;5006929;28;97529;-66
2022/12/23 08:31:23;;;;;;;44.03;19.77;;;;;;;12.45;67.17;100045.50;5005542;28;96868;-66
2022/12/23 08:33:53;;;;;;;36.90;14.70;;;;;;;12.35;67.24;100048.63;5002396;28;97957;-64
2022/12/23 08:36:21;;;;;;;40.53;15.15;;;;;;;12.16;68.09;100045.25;5005966;28;97555;-65
2022/12/23 08:38:48;;;;;;;39.78;15.32;;;;;;;12.03;68.50;100035.38;5007810;28;97957;-64
2022/12/23 08:41:29;;;;;;;35.70;15.57;;;;;;;12.45;67.50;100053.44;5009839;28;97060;-65
2022/12/23 08:43:56;;;;;;;39.10;15.82;;;;;;;12.33;67.67;100044.38;5001910;28;101130;-64
2022/12/23 08:46:23;;;;;;;32.60;14.07;;;;;;;12.36;67.46;100036.25;5009375;28;103419;-65
2022/12/23 08:48:50;;;;;;;33.33;14.45;;;;;;;12.47;66.97;100049.75;5006908;28;99084;-65
2022/12/23 08:51:19;;;;;;;36.35;14.75;;;;;;;12.39;67.08;100054.63;5009258;28;97785;-65
2022/12/23 08:53:47;;;;;;;35.10;14.43;;;;;;;12.25;67.52;100055.38;5008734;28;99029;-64
2022/12/23 08:56:16;;;;;;;40.83;15.15;;;;;;;12.40;67.31;100068.75;5004176;28;98284;-64
2022/12/23 08:58:46;;;;;;;38.95;16.38;;;;;;;12.39;66.98;100065.25;5011272;28;98186;-65
2022/12/23 09:01:14;;;;;;;38.20;14.68;;;;;;;12.40;67.10;100058.16;5013100;28;96792;-64
2022/12/23 09:03:41;;;;;;;35.25;14.38;;;;;;;12.32;67.46;100063.84;4997464;28;99184;-64
2022/12/23 09:06:11;;;;;;;36.47;14.10;;;;;;;12.31;67.76;100081.53;4998039;28;98944;-67
2022/12/23 09:08:38;;;;;;;33.38;14.38;;;;;;;12.42;67.34;100083.59;5001559;28;97313;-65
2022/12/23 09:11:05;;;;;;;38.47;14.93;;;;;;;12.19;67.94;100081.31;5007749;28;99227;-65
2022/12/23 09:13:31;;;;;;;39.78;14.80;;;;;;;12.33;67.27;100084.97;4998854;28;98899;-64
2022/12/23 09:15:59;;;;;;;34.30;13.82;;;;;;;12.43;66.92;100087.97;4998951;28;99837;-65
2022/12/23 09:18:26;;;;;;;36.22;14.02;;;;;;;12.38;67.07;100090.88;5002609;28;97088;-66
2022/12/23 09:20:57;;;;;;;41.42;14.88;;;;;;;12.26;67.64;100094.19;5000931;28;96941;-65
2022/12/23 09:23:24;;;;;;;42.33;15.13;;;;;;;12.17;68.39;100092.00;5001609;28;99005;-65
2022/12/23 09:25:50;;;;;;;42.20;15.38;;;;;;;12.23;68.46;100096.13;5010006;28;98402;-64
2022/12/23 09:28:17;;;;;;;42.05;17.20;;;;;;;12.44;67.64;100102.06;5008667;28;96932;-65
2022/12/23 09:30:43;;;;;;;42.13;15.55;;;;;;;12.52;66.93;100106.03;5003296;28;96931;-64
2022/12/23 09:33:11;;;;;;;39.28;15.82;;;;;;;12.23;67.75;100118.16;5000453;28;99123;-65
2022/12/23 09:35:38;;;;;;;39.35;14.75;;;;;;;12.03;68.30;100120.13;5002297;28;99045;-64
2022/12/23 09:38:04;;;;;;;39.20;14.40;;;;;;;12.31;67.40;100134.53;5006510;28;99744;-64
2022/12/23 09:40:34;;;;;;;40.22;13.57;;;;;;;12.34;67.58;100139.63;5001542;28;97479;-65
2022/12/23 09:43:17;;;;;;;35.40;14.50;;;;;;;12.15;68.21;100144.19;5008944;28;98938;-65
2022/12/23 09:46:04;;;;;;;38.72;14.40;;;;;;;12.25;67.71;100142.78;5003565;28;99169;-65
2022/12/23 09:48:35;;;;;;;;;;;;;;;12.33;67.59;100137.09;5009773;28;96992;-65
2022/12/23 09:51:03;;;;;;;35.00;14.98;;;;;;;12.27;67.77;100153.31;5009746;28;97983;-65
2022/12/23 09:53:43;;;;;;;40.63;15.13;;;;;;;12.30;68.05;100159.28;5008346;28;101147;-64
2022/12/23 09:56:19;;;;;;;31.88;13.77;;;;;;;12.35;67.77;100157.25;5005241;28;98999;-69
2022/12/23 09:58:53;;;;;;;29.92;12.23;;;;;;;12.40;67.01;100158.81;4998654;28;96866;-64
2022/12/23 10:01:29;;;;;;;27.90;12.90;;;;;;;12.25;67.38;100165.78;5011478;28;97299;-65
2022/12/23 10:04:24;;;;;;;24.75;10.52;;;;;;;12.11;67.47;100163.81;4996499;28;99453;-64
2022/12/23 10:06:55;;;;;;;28.45;11.20;;;;;;;11.88;69.01;100166.78;5008612;28;98302;-64
2022/12/23 10:09:22;;;;;;;22.50;10.00;;;;;;;11.55;70.34;100175.38;5001196;28;96882;-66
2022/12/23 10:11:50;;;;;;;23.90;10.95;;;;;;;11.71;69.78;100167.56;5005293;28;97916;-64
2022/12/23 10:14:22;;;;;;;25.98;10.63;;;;;;;11.80;69.60;100158.38;4992890;28;99524;-65
2022/12/23 10:16:52;;;;;;;24.63;10.27;;;;;;;11.95;68.77;100166.38;5003237;28;99446;-64
2022/12/23 10:19:24;;;;;;;26.70;12.40;;;;;;;12.39;67.54;100163.28;5004100;28;96964;-65
2022/12/23 10:21:54;;;;;;;32.53;13.00;;;;;;;12.52;67.30;100166.13;5006090;28;97405;-65
2022/12/23 10:24:23;;;;;;;30.75;13.52;;;;;;;12.17;67.73;100174.09;4997138;28;100506;-64
2022/12/23 10:26:52;;;;;;;28.88;12.55;;;;;;;12.29;67.33;100167.31;5007081;28;99817;-65
2022/12/23 10:29:21;;;;;;;32.33;13.95;;;;;;;12.81;66.17;100157.47;5015427;28;97180;-65
2022/12/23 10:32:17;;;;;;;29.90;13.25;;;;;;;12.77;65.81;100158.59;5005899;28;97019;-65
2022/12/23 10:34:52;;;;;;;27.85;12.23;;;;;;;13.01;65.04;100159.03;5003512;28;99536;-64
2022/12/23 10:37:28;;;;;;;28.63;12.20;;;;;;;12.93;65.38;100156.78;5004826;28;99112;-64
2022/12/23 10:40:09;;;;;;;24.20;11.57;;;;;;;12.51;66.36;100157.31;5007561;28;97234;-65
2022/12/23 10:42:42;;;;;;;22.63;11.07;;;;;;;12.90;65.08;100151.69;5009641;28;97302;-65
2022/12/23 10:45:28;;;;;;;23.33;11.50;;;;;;;13.02;65.21;100155.44;4999521;28;99560;-65
2022/12/23 10:48:09;;;;;;;25.13;11.05;;;;;;;13.00;64.81;100150.22;5004432;28;98236;-66
2022/12/23 10:50:55;;;;;;;23.77;10.80;;;;;;;13.18;64.17;100150.19;5009116;28;98530;-65
2022/12/23 10:53:30;;;;;;;20.53;9.37;;;;;;;13.23;63.71;100151.66;5004649;28;97382;-65
2022/12/23 10:55:57;;;;;;;17.65;8.70;;;;;;;12.88;65.06;100150.91;5000491;28;99379;-65
2022/12/23 10:58:26;;;;;;;14.27;6.45;;;;;;;12.95;64.36;100156.72;5005484;28;97817;-64
2022/12/23 11:00:55;;;;;;;13.48;6.85;;;;;;;13.27;63.95;100157.63;5006876;28;97269;-65
2022/12/23 11:03:28;;;;;;;10.63;6.63;;;;;;;13.63;62.93;100160.88;5005025;28;97035;-65
2022/12/23 11:05:57;;;;;;;12.35;6.53;;;;;;;13.52;62.74;100160.66;5002392;28;99764;-64
2022/12/23 11:08:27;;;;;;;14.95;7.35;;;;;;;13.52;62.96;100165.94;5011181;28;98919;-64
2022/12/23 11:10:54;;;;;;;13.45;6.63;;;;;;;13.37;63.06;100172.97;5007060;28;96822;-65
2022/12/23 11:13:32;;;;;;;14.70;6.88;;;;;;;13.32;63.74;100175.03;5005697;28;97548;-66
2022/12/23 11:16:11;;;;;;;12.70;6.47;;;;;;;13.02;63.77;100168.72;5003816;28;98919;-65
2022/12/23 11:18:38;;;;;;;14.20;7.38;;;;;;;12.94;64.34;100166.47;5001128;28;98859;-65
2022/12/23 11:21:07;;;;;;;13.35;7.50;;;;;;;13.14;63.95;100176.88;5005771;28;96914;-64
2022/12/23 11:23:35;;;;;;;16.50;7.30;;;;;;;12.93;64.63;100170.06;5002990;28;97928;-66
2022/12/23 11:26:04;;;;;;;15.68;7.45;;;;;;;13.09;64.32;100170.94;5001228;28;101874;-64
2022/12/23 11:28:33;;;;;;;16.40;8.30;;;;;;;12.93;64.65;100170.06;5005232;28;99516;-64
2022/12/23 11:31:04;;;;;;;15.05;7.80;;;;;;;12.64;65.23;100173.44;5006532;28;97189;-66
2022/12/23 11:33:34;;;;;;;15.15;7.80;;;;;;;12.51;65.97;100167.91;5008667;28;97272;-69
2022/12/23 11:36:07;;;;;;;15.27;7.68;;;;;;;12.32;66.98;100173.31;5005968;28;99966;-64
2022/12/23 11:38:36;;;;;;;20.15;10.20;;;;;;;12.43;66.41;100170.09;5007832;27;98858;-64
2022/12/23 11:41:04;;;;;;;16.92;8.60;;;;;;;12.73;65.32;100173.78;5010924;28;96838;-64
2022/12/23 11:43:33;;;;;;;15.63;8.60;;;;;;;12.62;65.39;100172.66;5010004;27;97680;-64
2022/12/23 11:46:25;;;;;;;17.98;9.00;;;;;;;12.48;66.27;100180.47;5013049;28;102135;-65
2022/12/23 11:49:05;;;;;;;18.67;9.70;;;;;;;12.53;66.04;100181.09;5014313;28;98754;-65
2022/12/23 11:51:33;;;;;;;20.23;10.10;;;;;;;12.54;65.92;100188.09;5013497;28;97153;-66